Blue Bay — V2CE6 — position and weather

sailwx.info

Track history (hours):
 
Tides and Currents Weather Stations Pressure Air Temp Water Temp Dewpoint Dewpoint Depression Visibility Wind Speed Wind Dir Waves Ship Positions

Blue Bay

Last reported at 2015-Jan-31 08:33 UTC. Time now 2015-Jan-31 08:42 UTC.
Position N 51°23' W 003°13'.

Length 89 m; draft 5.4 m.

Type: Cargo ship. MMSI: 304519000.

Date/timePositionNaut miles runAvg speedWind from/ knotsBaromVisibWave heightAir tempDewpointWater temp
2015-Jan-31 08:33N 51°23' W 003°13'0 0.0
2015-Jan-31 07:24N 51°23' W 003°13'0 0.0
2015-Jan-31 06:24N 51°23' W 003°13'0 0.0
2015-Jan-31 05:27N 51°23' W 003°13'0 0.2
2015-Jan-31 04:24N 51°23' W 003°13'0 0.0
2015-Jan-31 03:30N 51°23' W 003°13'0 0.0
2015-Jan-31 02:30N 51°23' W 003°13'0 0.0
2015-Jan-31 01:30N 51°23' W 003°13'0 0.0
2015-Jan-31 00:33N 51°23' W 003°13'0 0.0
2015-Jan-30 23:33N 51°23' W 003°13'0 0.0
2015-Jan-30 22:33N 51°23' W 003°13'0 0.0
2015-Jan-30 21:33N 51°23' W 003°13'0 0.1
2015-Jan-30 20:30N 51°23' W 003°13'0 0.0
2015-Jan-30 18:33N 51°23' W 003°13'0 0.0
2015-Jan-30 17:33N 51°23' W 003°13'0 0.0
2015-Jan-30 16:33N 51°23' W 003°13'0 0.2
2015-Jan-30 15:33N 51°23' W 003°13'0 0.1
2015-Jan-30 14:33N 51°23' W 003°13'5 4.7
2015-Jan-30 13:33N 51°22' W 003°21'80 7.3
2015-Jan-30 02:33N 50°43' W 005°13'7 6.9
2015-Jan-30 01:33N 50°39' W 005°21'7 6.9
2015-Jan-30 00:34N 50°34' W 005°29'7 7.2
2015-Jan-29 23:33N 50°29' W 005°37'  
2015-Jan-21 10:32N 51°01' W 009°59'10 9.9
2015-Jan-21 09:33N 51°10' W 010°06'1010.2
2015-Jan-21 08:33N 51°19' W 010°14'  
Track history (hours):
 
Tides and Currents Weather Stations Pressure Air Temp Water Temp Dewpoint Dewpoint Depression Visibility Wind Speed Wind Dir Waves Ship Positions

Blue Bay

Last reported at 2015-Jan-31 08:33 UTC. Time now 2015-Jan-31 08:42 UTC.
Position N 51°23' W 003°13'.

Length 89 m; draft 5.4 m.

Type: Cargo ship. MMSI: 304519000.

Date/timePositionNaut miles runAvg speedWind from/ knotsBaromVisibWave heightAir tempDewpointWater temp
2015-Jan-31 08:33N 51°23' W 003°13'0 0.0
2015-Jan-31 07:24N 51°23' W 003°13'0 0.0
2015-Jan-31 06:24N 51°23' W 003°13'0 0.0
2015-Jan-31 05:27N 51°23' W 003°13'0 0.2
2015-Jan-31 04:24N 51°23' W 003°13'0 0.0
2015-Jan-31 03:30N 51°23' W 003°13'0 0.0
2015-Jan-31 02:30N 51°23' W 003°13'0 0.0
2015-Jan-31 01:30N 51°23' W 003°13'0 0.0
2015-Jan-31 00:33N 51°23' W 003°13'0 0.0
2015-Jan-30 23:33N 51°23' W 003°13'0 0.0
2015-Jan-30 22:33N 51°23' W 003°13'0 0.0
2015-Jan-30 21:33N 51°23' W 003°13'0 0.1
2015-Jan-30 20:30N 51°23' W 003°13'0 0.0
2015-Jan-30 18:33N 51°23' W 003°13'0 0.0
2015-Jan-30 17:33N 51°23' W 003°13'0 0.0
2015-Jan-30 16:33N 51°23' W 003°13'0 0.2
2015-Jan-30 15:33N 51°23' W 003°13'0 0.1
2015-Jan-30 14:33N 51°23' W 003°13'5 4.7
2015-Jan-30 13:33N 51°22' W 003°21'80 7.3
2015-Jan-30 02:33N 50°43' W 005°13'7 6.9
2015-Jan-30 01:33N 50°39' W 005°21'7 6.9
2015-Jan-30 00:34N 50°34' W 005°29'7 7.2
2015-Jan-29 23:33N 50°29' W 005°37'  
2015-Jan-21 10:32N 51°01' W 009°59'10 9.9
2015-Jan-21 09:33N 51°10' W 010°06'1010.2
2015-Jan-21 08:33N 51°19' W 010°14'  

Dump ship's entire track history